• Join FlightAware (Why Join?)
  • Login
  • US Flag 
08:10AM EST


 

Airport Tracker/Info


-or-


 

Live Flight TrackerFlight Track Log ✈ SKQ35 ✈ 09-May-2013 ✈ KBUY - KPDK

Flight Track Log - Related Links

Times and Time Zones

All times are in EDT time to prevent confusion due to time zone crossing. See the SKQ35 flight status page for this flight to view local times or setup timezone preferences in your user account.

Time Position Orientation Groundspeed Altitude Reporting Facility
EDT Latitude Longitude Course Direction KTS MPH feet Rate Location/Type
01:48AM 36.0619 -79.6694 241° Southwest 168 193 7,000  Level Atlanta Center
01:49AM 36.0342 -79.7147 233° Southwest 168 193 8,500 1,440 Climbing Atlanta Center
01:50AM 36.0150 -79.7594 242° Southwest 168 193 9,900 1,320 Climbing Atlanta Center
01:51AM 35.8762 -79.8761 244° Southwest  Level FlightAware Approximate
01:51AM 35.9917 -79.8119 241° Southwest 174 200 11,200  Level Atlanta Center
01:52AM 35.8471 -79.9432 241° Southwest  Level FlightAware Approximate
01:52AM 35.9686 -79.8644 242° Southwest 174 200 12,500  Level Atlanta Center
01:53AM 35.8169 -80.0095 241° Southwest  Level FlightAware Approximate
01:53AM 35.9453 -79.9144 240° Southwest 174 200 13,800  Level Atlanta Center
01:54AM 35.7868 -80.0758 241° Southwest  Level FlightAware Approximate
01:54AM 35.9200 -79.9747 243° Southwest 174 200 15,100  Level Atlanta Center
01:55AM 35.8947 -80.0272 239° Southwest 179 206 16,000 420 Climbing Atlanta Center
01:56AM 35.8675 -80.0925 243° Southwest 197 227 16,000  Level Atlanta Center
01:57AM 35.8364 -80.1581 240° Southwest 211 243 16,000  Level Atlanta Center
01:58AM 35.8072 -80.2261 242° Southwest 234 269 16,000  Level Atlanta Center
01:59AM 35.7761 -80.2992 242° Southwest 245 282 16,000  Level Atlanta Center
02:00AM 35.7428 -80.3725 241° Southwest 250 288 16,000  Level Atlanta Center
02:01AM 35.7094 -80.4456 241° Southwest 244 281 16,000  Level Atlanta Center
02:02AM 35.6781 -80.5158 241° Southwest 249 287 16,000  Level Atlanta Center
02:03AM 35.6467 -80.5861 241° Southwest 244 281 16,000  Level Atlanta Center
02:04AM 35.6153 -80.6592 242° Southwest 244 281 16,000  Level Atlanta Center
02:05AM 35.5778 -80.7372 239° Southwest 244 281 16,000  Level Atlanta Center
02:06AM 35.5464 -80.8100 242° Southwest 244 281 16,000  Level Atlanta Center
02:07AM 35.5128 -80.8803 240° Southwest 244 281 16,000  Level Atlanta Center
02:08AM 35.4792 -80.9528 240° Southwest 244 281 16,000  Level Atlanta Center
02:09AM 35.4475 -81.0228 241° Southwest 249 287 16,000  Level Atlanta Center
02:10AM 35.4139 -81.0981 241° Southwest 243 280 16,000  Level Atlanta Center
02:11AM 35.3842 -81.1628 241° Southwest 249 287 16,000  Level Atlanta Center
02:12AM 35.3525 -81.2328 241° Southwest 249 287 16,000  Level Atlanta Center
02:13AM 35.3186 -81.3050 240° Southwest 249 287 16,000  Level Atlanta Center
02:14AM 35.2867 -81.3772 242° Southwest 243 280 16,000  Level Atlanta Center
02:15AM 35.2489 -81.4575 240° Southwest 248 285 16,000  Level Atlanta Center
02:16AM 35.2147 -81.5297 240° Southwest 248 285 16,000  Level Atlanta Center
02:17AM 35.1828 -81.5992 241° Southwest 248 285 16,000  Level Atlanta Center
02:18AM 35.1489 -81.6714 240° Southwest 248 285 16,000  Level Atlanta Center
02:19AM 35.1167 -81.7433 241° Southwest 248 285 16,000  Level Atlanta Center
02:20AM 35.0847 -81.8178 242° Southwest 248 285 16,000  Level Atlanta Center
02:21AM 35.0486 -81.8900 239° Southwest 248 285 16,000  Level Atlanta Center
02:22AM 35.0164 -81.9592 240° Southwest 248 285 16,000  Level Atlanta Center
02:23AM 34.9861 -82.0233 240° Southwest 248 285 16,000  Level Atlanta Center
02:24AM 34.9517 -82.0925 239° Southwest 248 285 16,000  Level Atlanta Center
02:25AM 34.9194 -82.1642 241° Southwest 248 285 16,000  Level Atlanta Center
02:26AM 34.8850 -82.2333 239° Southwest 248 285 16,000  Level Atlanta Center
02:27AM 34.8506 -82.3025 239° Southwest 248 285 16,000  Level Atlanta Center
02:28AM 34.8203 -82.3739 243° Southwest 248 285 16,000  Level Atlanta Center
02:29AM 34.7856 -82.4428 238° Southwest 248 285 16,000  Level Atlanta Center
02:30AM 34.7511 -82.5169 241° Southwest 248 285 16,000  Level Atlanta Center
02:31AM 34.7186 -82.5856 240° Southwest 248 285 16,000  Level Atlanta Center
02:32AM 34.6839 -82.6519 238° Southwest 248 285 16,000  Level Atlanta Center
02:33AM 34.6431 -82.7308 238° Southwest 248 285 16,000  Level Atlanta Center
02:34AM 34.6103 -82.8047 242° Southwest 248 285 16,000  Level Atlanta Center
02:35AM 34.5756 -82.8758 239° Southwest 248 285 16,000  Level Atlanta Center
02:36AM 34.5469 -82.9392 241° Southwest 248 285 16,000  Level Atlanta Center
02:37AM 34.5100 -83.0078 237° Southwest 248 285 16,000 -540 Level Atlanta Center
02:38AM 34.4772 -83.0864 243° Southwest 253 291 15,000 -1,020 Descending Atlanta Center
02:39AM 34.4403 -83.1647 240° Southwest 266 306 14,000 -1,020 Descending Atlanta Center
02:40AM 34.3989 -83.2433 237° Southwest 271 312 13,000 -1,020 Descending Atlanta Center
02:41AM 34.3639 -83.3217 242° Southwest 270 311 12,000 -1,020 Descending Atlanta Center
02:42AM 34.3228 -83.4000 238° Southwest 275 316 11,000 -1,020 Descending Atlanta Center
02:43AM 34.2814 -83.4858 240° Southwest 275 316 10,000 -1,020 Descending Atlanta Center
02:44AM 34.2419 -83.5639 239° Southwest 270 311 9,000 -1,020 Descending Atlanta Center
02:45AM 34.2069 -83.6394 241° Southwest 270 311 8,000 -1,020 Descending Atlanta Center
02:46AM 34.1694 -83.7150 239° Southwest 270 311 7,000 -1,020 Descending Atlanta Center
02:47AM 34.1322 -83.7878 238° Southwest 264 304 6,000 -600 Descending Atlanta Center
02:48AM 34.0989 -83.8556 239° Southwest 259 298 5,900 -240 Descending Atlanta Center
02:49AM 34.0833 -83.9167 253° West 235 270 5,600 -660 Descending Atlanta TRACON
02:50AM 34.0500 -84.0000 244° Southwest 247 284 4,600 -1,020 Descending Atlanta TRACON
02:51AM 34.0333 -84.0667 253° West 233 268 3,600 -900 Descending Atlanta TRACON
02:52AM 34.0167 -84.1333 253° West 208 239 2,900 -360 Descending Atlanta TRACON
02:53AM 33.9833 -84.2000 239° Southwest 179 206 2,900  Level Atlanta TRACON
02:55AM 33.9208 -84.2592 244° Southwest  Level Estimated
03:02AM 33.8667 -84.3000 239° Southwest  Level FlightAware Approximate
03:03AM 33.8756 -84.3020 239° Southwest  Level Estimated
03:04AM 33.8756 -84.3020 239° Southwest  Level Estimated
03:05AM 33.8756 -84.3020 239° Southwest  Level Estimated
03:06AM 33.8756 -84.3020 239° Southwest  Level Estimated
03:07AM 33.8756 -84.3020 239° Southwest  Level Estimated
03:08AM 33.8756 -84.3020 239° Southwest  Level Estimated
03:09AM 33.8756 -84.3020 239° Southwest  Level Estimated
03:10AM 33.8756 -84.3020 239° Southwest  Level Estimated
03:11AM 33.8756 -84.3020 239° Southwest  Level Estimated
03:12AM 33.8756 -84.3020 239° Southwest  Level Estimated
03:13AM 33.8756 -84.3020 239° Southwest  Level Estimated